Time;durP1;ratioP1;P1;durP2;ratioP2;P2;SDS_P1;SDS_P2;PMS_P1;PMS_P2;Temp;Humidity;BMP_temperature;BMP_pressure;BME280_temperature;BME280_humidity;BME280_pressure;Samples;Min_cycle;Max_cycle;Signal;HPM_P1;HPM_P2
2023/08/24 00:00:15;;;;;;;5.43;2.30;;;;;;;;;;5047267;28;20849;-77
2023/08/24 00:02:42;;;;;;;4.13;1.70;;;;;;;;;;5044134;28;20558;-77
2023/08/24 00:05:08;;;;;;;3.60;1.83;;;;;;;;;;5045491;28;20525;-77
2023/08/24 00:07:37;;;;;;;4.20;2.17;;;;;;;;;;5047162;28;20460;-78
2023/08/24 00:10:04;;;;;;;3.33;1.97;;;;;;;;;;5046887;28;20815;-77
2023/08/24 00:12:30;;;;;;;2.17;1.97;;;;;;;;;;5043052;28;20472;-78
2023/08/24 00:14:56;;;;;;;2.53;2.33;;;;;;;;;;5044731;28;20444;-77
2023/08/24 00:17:24;;;;;;;2.53;1.80;;;;;;;;;;5046676;28;21095;-77
2023/08/24 00:19:51;;;;;;;4.43;2.17;;;;;;;;;;5047346;28;20838;-77
2023/08/24 00:22:17;;;;;;;2.07;1.90;;;;;;;;;;5038359;28;20484;-77
2023/08/24 00:24:44;;;;;;;2.90;1.80;;;;;;;;;;5044076;28;20516;-77
2023/08/24 00:27:10;;;;;;;2.33;1.83;;;;;;;;;;5046571;28;20432;-77
2023/08/24 00:29:37;;;;;;;3.13;1.70;;;;;;;;;;5042568;28;20476;-77
2023/08/24 00:32:04;;;;;;;3.90;2.27;;;;;;;;;;5049067;28;20467;-77
2023/08/24 00:34:31;;;;;;;2.43;1.97;;;;;;;;;;5040874;28;20919;-77
2023/08/24 00:36:58;;;;;;;2.77;1.87;;;;;;;;;;5046802;28;20461;-77
2023/08/24 00:39:25;;;;;;;3.73;2.30;;;;;;;;;;5045545;28;20484;-77
2023/08/24 00:41:51;;;;;;;3.80;2.83;;;;;;;;;;5043833;28;21036;-77
2023/08/24 00:44:18;;;;;;;2.50;1.83;;;;;;;;;;5045773;28;20487;-77
2023/08/24 00:46:44;;;;;;;3.80;2.27;;;;;;;;;;5043231;28;20468;-77
2023/08/24 00:49:11;;;;;;;2.67;2.20;;;;;;;;;;5044239;28;20530;-77
2023/08/24 00:51:38;;;;;;;2.97;1.80;;;;;;;;;;5043931;28;20463;-77
2023/08/24 00:54:05;;;;;;;5.23;2.30;;;;;;;;;;5045009;28;20994;-77
2023/08/24 00:56:32;;;;;;;3.00;2.07;;;;;;;;;;5041672;28;20471;-77
2023/08/24 00:58:58;;;;;;;7.60;2.40;;;;;;;;;;5049630;28;20472;-77
2023/08/24 01:01:25;;;;;;;4.33;2.27;;;;;;;;;;5044169;28;20466;-77
2023/08/24 01:03:51;;;;;;;2.00;1.90;;;;;;;;;;5042632;28;20442;-77
2023/08/24 01:06:18;;;;;;;7.07;1.90;;;;;;;;;;5041940;28;20459;-77
2023/08/24 01:08:46;;;;;;;2.90;2.00;;;;;;;;;;5039864;28;20463;-78
2023/08/24 01:11:16;;;;;;;2.13;1.90;;;;;;;;;;5042328;28;20461;-78
2023/08/24 01:13:46;;;;;;;2.17;2.07;;;;;;;;;;5043694;28;20490;-78
2023/08/24 01:16:15;;;;;;;3.90;2.10;;;;;;;;;;5042694;28;20868;-78
2023/08/24 01:18:42;;;;;;;3.20;1.87;;;;;;;;;;5043395;28;20472;-77
2023/08/24 01:21:09;;;;;;;3.03;1.90;;;;;;;;;;5045034;28;20543;-77
2023/08/24 01:23:38;;;;;;;2.10;1.90;;;;;;;;;;5045396;28;20489;-77
2023/08/24 01:26:08;;;;;;;2.90;2.00;;;;;;;;;;5045539;28;20480;-78
2023/08/24 01:28:34;;;;;;;2.33;2.07;;;;;;;;;;5042607;28;21003;-77
2023/08/24 01:31:01;;;;;;;2.30;2.10;;;;;;;;;;5046156;28;20472;-78
2023/08/24 01:33:28;;;;;;;5.20;2.30;;;;;;;;;;5046428;28;20479;-77
2023/08/24 01:35:54;;;;;;;3.27;2.03;;;;;;;;;;5043116;28;20464;-78
2023/08/24 01:38:21;;;;;;;3.60;2.20;;;;;;;;;;5041803;28;20481;-78
2023/08/24 01:40:51;;;;;;;5.70;2.47;;;;;;;;;;5043866;28;20463;-78
2023/08/24 01:43:19;;;;;;;6.00;2.23;;;;;;;;;;5044593;28;20989;-78
2023/08/24 01:45:46;;;;;;;2.40;2.03;;;;;;;;;;5044308;28;20487;-78
2023/08/24 01:48:13;;;;;;;3.33;2.27;;;;;;;;;;5046247;28;20476;-79
2023/08/24 01:50:40;;;;;;;3.93;2.00;;;;;;;;;;5043112;28;20467;-78
2023/08/24 01:53:07;;;;;;;5.83;1.70;;;;;;;;;;5043838;28;21167;-79
2023/08/24 01:55:33;;;;;;;2.70;1.93;;;;;;;;;;5047972;28;20463;-77
2023/08/24 01:57:59;;;;;;;3.40;2.23;;;;;;;;;;5041933;28;20483;-77
2023/08/24 02:00:28;;;;;;;2.00;1.80;;;;;;;;;;5044471;28;20474;-77
2023/08/24 02:02:54;;;;;;;3.20;2.50;;;;;;;;;;5059031;28;20473;-77
2023/08/24 02:05:21;;;;;;;3.10;2.80;;;;;;;;;;5042912;28;20484;-77
2023/08/24 02:07:47;;;;;;;2.57;2.33;;;;;;;;;;5044398;28;20467;-78
2023/08/24 02:10:14;;;;;;;2.53;2.33;;;;;;;;;;5044961;28;20462;-77
2023/08/24 02:12:40;;;;;;;5.13;2.70;;;;;;;;;;5042749;28;20473;-77
2023/08/24 02:15:07;;;;;;;6.80;1.97;;;;;;;;;;5042069;28;20993;-77
2023/08/24 02:17:34;;;;;;;3.93;2.10;;;;;;;;;;5045905;28;20829;-78
2023/08/24 02:20:01;;;;;;;2.40;2.20;;;;;;;;;;5042066;28;20526;-77
2023/08/24 02:22:27;;;;;;;2.60;2.00;;;;;;;;;;5043048;28;20488;-78
2023/08/24 02:24:54;;;;;;;2.60;2.40;;;;;;;;;;5042343;28;20476;-77
2023/08/24 02:27:20;;;;;;;2.23;2.00;;;;;;;;;;5045981;28;20448;-77
2023/08/24 02:29:46;;;;;;;7.30;2.43;;;;;;;;;;5043176;28;20472;-77
2023/08/24 02:32:13;;;;;;;6.10;2.60;;;;;;;;;;5042837;28;20464;-77
2023/08/24 02:34:40;;;;;;;2.80;2.60;;;;;;;;;;5040275;28;20472;-77
2023/08/24 02:37:07;;;;;;;2.47;2.27;;;;;;;;;;5042871;28;20459;-77
2023/08/24 02:39:34;;;;;;;4.47;2.67;;;;;;;;;;5044800;28;20487;-78
2023/08/24 02:42:02;;;;;;;5.80;2.83;;;;;;;;;;5045920;28;21030;-77
2023/08/24 02:44:28;;;;;;;6.80;2.70;;;;;;;;;;5046486;28;20472;-77
2023/08/24 02:46:55;;;;;;;5.37;2.90;;;;;;;;;;5047365;28;20543;-77
2023/08/24 02:49:21;;;;;;;4.57;3.03;;;;;;;;;;5048680;28;20471;-77
2023/08/24 02:51:49;;;;;;;3.20;2.90;;;;;;;;;;5047382;28;20487;-77
2023/08/24 02:54:15;;;;;;;3.13;2.83;;;;;;;;;;5045019;28;20556;-77
2023/08/24 02:56:42;;;;;;;3.50;2.50;;;;;;;;;;5047642;28;20509;-77
2023/08/24 02:59:08;;;;;;;6.60;3.00;;;;;;;;;;5043018;28;20484;-77
2023/08/24 03:01:38;;;;;;;4.27;2.73;;;;;;;;;;5045817;28;20463;-77
2023/08/24 03:04:05;;;;;;;4.20;3.17;;;;;;;;;;5047826;28;20486;-77
2023/08/24 03:06:32;;;;;;;3.33;3.03;;;;;;;;;;5047106;28;20494;-77
2023/08/24 03:09:00;;;;;;;4.47;2.93;;;;;;;;;;5045733;28;20478;-78
2023/08/24 03:11:26;;;;;;;4.50;3.63;;;;;;;;;;5050355;28;20468;-78
2023/08/24 03:13:53;;;;;;;3.87;3.47;;;;;;;;;;5042988;28;20480;-77
2023/08/24 03:16:20;;;;;;;4.87;3.67;;;;;;;;;;5045449;28;20419;-78
2023/08/24 03:18:47;;;;;;;4.13;3.73;;;;;;;;;;5044981;28;20885;-78
2023/08/24 03:21:14;;;;;;;3.90;3.50;;;;;;;;;;5046661;28;20470;-79
2023/08/24 03:23:40;;;;;;;4.77;4.37;;;;;;;;;;5048314;28;20479;-78
2023/08/24 03:26:08;;;;;;;5.50;3.77;;;;;;;;;;5045749;28;20485;-79
2023/08/24 03:28:35;;;;;;;6.57;3.80;;;;;;;;;;5048939;28;20926;-79
2023/08/24 03:31:01;;;;;;;4.90;4.40;;;;;;;;;;5046419;28;20994;-79
2023/08/24 03:33:28;;;;;;;5.53;4.40;;;;;;;;;;5046356;28;20979;-79
2023/08/24 03:35:54;;;;;;;5.10;3.97;;;;;;;;;;5048630;28;20514;-79
2023/08/24 03:38:21;;;;;;;3.90;3.30;;;;;;;;;;5049258;28;20480;-78
2023/08/24 03:40:47;;;;;;;7.90;3.60;;;;;;;;;;5045253;28;20495;-79
2023/08/24 03:43:15;;;;;;;4.47;3.77;;;;;;;;;;5044088;28;20480;-79
2023/08/24 03:45:43;;;;;;;6.17;4.03;;;;;;;;;;5046834;28;20455;-78
2023/08/24 03:48:09;;;;;;;5.33;3.50;;;;;;;;;;5048279;28;20472;-79
2023/08/24 03:50:36;;;;;;;3.90;3.50;;;;;;;;;;5044092;28;20455;-79
2023/08/24 03:53:02;;;;;;;8.73;4.60;;;;;;;;;;5045852;28;20488;-79
2023/08/24 03:55:28;;;;;;;5.53;4.93;;;;;;;;;;5040624;28;20448;-79
2023/08/24 03:57:55;;;;;;;5.77;4.30;;;;;;;;;;5049365;28;21035;-79
2023/08/24 04:00:23;;;;;;;11.50;5.47;;;;;;;;;;5048189;28;20478;-78
2023/08/24 04:02:49;;;;;;;6.93;5.10;;;;;;;;;;5046363;28;20552;-78
2023/08/24 04:05:16;;;;;;;5.53;3.70;;;;;;;;;;5047275;28;20488;-78
2023/08/24 04:07:43;;;;;;;8.33;4.70;;;;;;;;;;5046742;28;20440;-79
2023/08/24 04:10:10;;;;;;;6.27;4.43;;;;;;;;;;5045956;28;20460;-78
2023/08/24 04:12:37;;;;;;;5.00;4.50;;;;;;;;;;5047045;28;20505;-79
2023/08/24 04:15:04;;;;;;;5.43;4.90;;;;;;;;;;5043481;28;20509;-78
2023/08/24 04:17:32;;;;;;;7.37;5.80;;;;;;;;;;5044838;28;20465;-79
2023/08/24 04:19:58;;;;;;;5.67;5.10;;;;;;;;;;5042638;28;20435;-78
2023/08/24 04:22:25;;;;;;;7.20;4.80;;;;;;;;;;5027257;28;20485;-79
2023/08/24 04:24:51;;;;;;;5.70;5.17;;;;;;;;;;5044969;28;20472;-78
2023/08/24 04:27:18;;;;;;;4.90;4.37;;;;;;;;;;5046588;28;20460;-78
2023/08/24 04:29:44;;;;;;;5.80;5.00;;;;;;;;;;5040499;28;20476;-78
2023/08/24 04:32:11;;;;;;;5.83;4.30;;;;;;;;;;5045635;28;20503;-78
2023/08/24 04:34:39;;;;;;;7.93;4.67;;;;;;;;;;5042377;28;20972;-78
2023/08/24 04:37:06;;;;;;;4.93;4.50;;;;;;;;;;5048890;28;20447;-78
2023/08/24 04:39:33;;;;;;;7.30;5.37;;;;;;;;;;5047059;28;20578;-78
2023/08/24 04:41:59;;;;;;;5.07;4.60;;;;;;;;;;5044355;28;20467;-78
2023/08/24 04:44:25;;;;;;;5.10;4.60;;;;;;;;;;5043009;28;20450;-78
2023/08/24 04:46:52;;;;;;;4.70;4.30;;;;;;;;;;5047465;28;20495;-78
2023/08/24 04:49:18;;;;;;;10.67;5.40;;;;;;;;;;5044352;28;20476;-78
2023/08/24 04:51:46;;;;;;;7.13;6.20;;;;;;;;;;5047491;28;21058;-78
2023/08/24 04:54:12;;;;;;;6.70;5.50;;;;;;;;;;5041845;28;20475;-78
2023/08/24 04:56:39;;;;;;;4.13;3.73;;;;;;;;;;5043117;28;20489;-78
2023/08/24 04:59:07;;;;;;;5.93;4.00;;;;;;;;;;5040850;28;20478;-78
2023/08/24 05:01:34;;;;;;;11.07;4.47;;;;;;;;;;5050784;28;20460;-78
2023/08/24 05:04:00;;;;;;;8.97;4.90;;;;;;;;;;5043483;28;20498;-78
2023/08/24 05:06:26;;;;;;;5.10;4.30;;;;;;;;;;5045284;28;20494;-78
2023/08/24 05:08:55;;;;;;;6.30;4.30;;;;;;;;;;5045324;28;20480;-78
2023/08/24 05:11:23;;;;;;;5.10;4.70;;;;;;;;;;5043360;28;20456;-78
2023/08/24 05:13:50;;;;;;;4.87;4.47;;;;;;;;;;5044304;28;20479;-78
2023/08/24 05:16:17;;;;;;;6.23;4.23;;;;;;;;;;5044780;28;20456;-78
2023/08/24 05:18:45;;;;;;;6.23;5.57;;;;;;;;;;5043202;28;20480;-78
2023/08/24 05:21:12;;;;;;;6.23;5.63;;;;;;;;;;5044431;28;20543;-79
2023/08/24 05:23:40;;;;;;;5.43;4.93;;;;;;;;;;5044150;28;20500;-78
2023/08/24 05:26:08;;;;;;;8.60;5.30;;;;;;;;;;5039224;28;20483;-78
2023/08/24 05:28:34;;;;;;;5.57;5.07;;;;;;;;;;5044923;28;20463;-79
2023/08/24 05:31:01;;;;;;;6.17;5.40;;;;;;;;;;5043287;28;20971;-78
2023/08/24 05:33:30;;;;;;;5.87;5.10;;;;;;;;;;5046220;28;20562;-78
2023/08/24 05:35:57;;;;;;;9.13;5.50;;;;;;;;;;5043792;28;20448;-78
2023/08/24 05:38:23;;;;;;;6.40;5.80;;;;;;;;;;5047033;28;20477;-78
2023/08/24 05:40:50;;;;;;;8.83;4.57;;;;;;;;;;5046069;28;20471;-78
2023/08/24 05:43:17;;;;;;;7.27;6.47;;;;;;;;;;5045760;28;21007;-78
2023/08/24 05:45:44;;;;;;;12.03;6.40;;;;;;;;;;5044029;28;20480;-79
2023/08/24 05:48:11;;;;;;;11.47;7.47;;;;;;;;;;5042804;28;20480;-79
2023/08/24 05:50:38;;;;;;;9.40;7.63;;;;;;;;;;5042136;28;20464;-79
2023/08/24 05:53:05;;;;;;;13.03;7.00;;;;;;;;;;5044365;28;20479;-79
2023/08/24 05:55:32;;;;;;;10.67;6.93;;;;;;;;;;5041780;28;20427;-79
2023/08/24 05:57:58;;;;;;;12.73;6.80;;;;;;;;;;5044840;28;20468;-79
2023/08/24 06:00:26;;;;;;;9.70;6.97;;;;;;;;;;5041928;28;20471;-79
2023/08/24 06:02:52;;;;;;;9.30;7.90;;;;;;;;;;5043088;28;20471;-79
2023/08/24 06:05:19;;;;;;;7.73;5.30;;;;;;;;;;5041763;28;20434;-79
2023/08/24 06:07:45;;;;;;;8.67;6.60;;;;;;;;;;5047168;28;20476;-79
2023/08/24 06:10:12;;;;;;;10.07;7.70;;;;;;;;;;5039798;28;20490;-79
2023/08/24 06:12:38;;;;;;;16.27;8.70;;;;;;;;;;5043335;28;20455;-79
2023/08/24 06:15:07;;;;;;;9.33;6.57;;;;;;;;;;5043544;28;20463;-79
2023/08/24 06:17:35;;;;;;;16.23;7.83;;;;;;;;;;5042362;28;20444;-80
2023/08/24 06:20:03;;;;;;;6.77;5.77;;;;;;;;;;5047720;28;20898;-79
2023/08/24 06:22:30;;;;;;;9.93;6.83;;;;;;;;;;5051981;28;20887;-80
2023/08/24 06:24:59;;;;;;;9.93;7.13;;;;;;;;;;5049360;28;20456;-79
2023/08/24 06:27:26;;;;;;;12.37;7.20;;;;;;;;;;5049067;28;20554;-80
2023/08/24 06:29:53;;;;;;;12.83;8.50;;;;;;;;;;5047349;28;20456;-79
2023/08/24 06:32:19;;;;;;;10.77;7.20;;;;;;;;;;5044491;28;20480;-79
2023/08/24 06:34:47;;;;;;;7.93;5.53;;;;;;;;;;5046146;28;20472;-79
2023/08/24 06:37:14;;;;;;;6.57;5.00;;;;;;;;;;5048402;28;20433;-79
2023/08/24 06:39:42;;;;;;;9.83;5.20;;;;;;;;;;5051212;28;20993;-79
2023/08/24 06:42:08;;;;;;;10.13;5.37;;;;;;;;;;5046850;28;20525;-79
2023/08/24 06:44:36;;;;;;;8.63;4.20;;;;;;;;;;5047425;28;20533;-79
2023/08/24 06:47:03;;;;;;;4.73;4.17;;;;;;;;;;5049989;28;20526;-79
2023/08/24 06:49:29;;;;;;;9.83;4.70;;;;;;;;;;5046262;28;20480;-79
2023/08/24 06:51:57;;;;;;;9.87;4.57;;;;;;;;;;5049034;28;20467;-79
2023/08/24 06:54:24;;;;;;;11.50;4.83;;;;;;;;;;5046818;28;21029;-79
2023/08/24 06:56:50;;;;;;;6.43;3.90;;;;;;;;;;5050161;28;20529;-78
2023/08/24 06:59:18;;;;;;;7.03;3.83;;;;;;;;;;5040699;28;21016;-79
2023/08/24 07:01:44;;;;;;;6.13;3.60;;;;;;;;;;5047567;28;20835;-79
2023/08/24 07:04:12;;;;;;;7.40;3.30;;;;;;;;;;5047347;28;20558;-79
2023/08/24 07:06:39;;;;;;;8.57;4.70;;;;;;;;;;5049153;28;20467;-79
2023/08/24 07:09:08;;;;;;;8.83;4.23;;;;;;;;;;5045758;28;20452;-79
2023/08/24 07:11:34;;;;;;;5.03;3.77;;;;;;;;;;5044150;28;21009;-79
2023/08/24 07:14:00;;;;;;;4.90;3.13;;;;;;;;;;5044804;28;20462;-79
2023/08/24 07:16:27;;;;;;;6.57;3.60;;;;;;;;;;5045662;28;20474;-79
2023/08/24 07:18:53;;;;;;;7.50;3.43;;;;;;;;;;5047688;28;20467;-79
2023/08/24 07:21:19;;;;;;;7.30;3.07;;;;;;;;;;5047822;28;20503;-79
2023/08/24 07:23:46;;;;;;;6.00;2.83;;;;;;;;;;5046408;28;20472;-79
2023/08/24 07:26:14;;;;;;;6.17;3.07;;;;;;;;;;5042410;28;20485;-79
2023/08/24 07:28:40;;;;;;;4.33;2.70;;;;;;;;;;5048552;28;20470;-79
2023/08/24 07:31:12;;;;;;;7.93;3.00;;;;;;;;;;5044799;28;20519;-79
2023/08/24 07:33:39;;;;;;;7.67;3.00;;;;;;;;;;5049076;28;20479;-79
2023/08/24 07:36:06;;;;;;;5.17;2.67;;;;;;;;;;5046681;28;20463;-79
2023/08/24 07:38:33;;;;;;;7.70;2.87;;;;;;;;;;5043790;28;20459;-79
2023/08/24 07:41:00;;;;;;;8.13;2.93;;;;;;;;;;5047116;28;20478;-79
2023/08/24 07:43:28;;;;;;;7.37;2.73;;;;;;;;;;5048113;28;20492;-79
2023/08/24 07:45:54;;;;;;;6.80;3.47;;;;;;;;;;5046883;28;20563;-79
2023/08/24 07:48:21;;;;;;;4.77;2.63;;;;;;;;;;5048810;28;20474;-79
2023/08/24 07:50:47;;;;;;;5.23;2.57;;;;;;;;;;5046224;28;20468;-79
2023/08/24 07:53:14;;;;;;;6.70;2.50;;;;;;;;;;5051937;28;20468;-79
2023/08/24 07:55:40;;;;;;;9.33;2.80;;;;;;;;;;5046366;28;20533;-79
2023/08/24 07:58:07;;;;;;;4.10;2.03;;;;;;;;;;5041863;28;20459;-79
2023/08/24 08:00:34;;;;;;;8.90;4.50;;;;;;;;;;5045280;28;21030;-79
2023/08/24 08:03:01;;;;;;;9.50;5.67;;;;;;;;;;5047181;28;20485;-79
2023/08/24 08:05:27;;;;;;;10.80;5.13;;;;;;;;;;5045608;28;20475;-79
2023/08/24 08:07:54;;;;;;;19.07;8.33;;;;;;;;;;5046008;28;20481;-79
2023/08/24 08:10:21;;;;;;;21.17;6.87;;;;;;;;;;5043655;28;20479;-79
2023/08/24 08:12:47;;;;;;;17.30;6.20;;;;;;;;;;5044118;28;20841;-79
2023/08/24 08:15:14;;;;;;;17.90;6.73;;;;;;;;;;5048230;28;20475;-79
2023/08/24 08:17:42;;;;;;;20.20;6.40;;;;;;;;;;5046304;28;20832;-79
2023/08/24 08:20:09;;;;;;;11.50;5.20;;;;;;;;;;5043781;28;20467;-80
2023/08/24 08:22:38;;;;;;;10.30;4.80;;;;;;;;;;5045625;28;21040;-79
2023/08/24 08:25:06;;;;;;;5.20;4.13;;;;;;;;;;5042824;28;20982;-79
2023/08/24 08:27:33;;;;;;;13.30;4.20;;;;;;;;;;5048500;28;20489;-79
2023/08/24 08:29:59;;;;;;;10.07;4.03;;;;;;;;;;5043071;28;20502;-79
2023/08/24 08:32:27;;;;;;;8.10;4.47;;;;;;;;;;5046969;28;20465;-79
2023/08/24 08:34:56;;;;;;;10.00;4.33;;;;;;;;;;5044656;28;20466;-79
2023/08/24 08:37:23;;;;;;;12.57;4.60;;;;;;;;;;5047313;28;20463;-79
2023/08/24 08:39:49;;;;;;;11.33;4.60;;;;;;;;;;5042441;28;20472;-80
2023/08/24 08:42:15;;;;;;;12.93;5.33;;;;;;;;;;5047123;28;20468;-79
2023/08/24 08:44:43;;;;;;;13.40;5.10;;;;;;;;;;5043232;28;20456;-80
2023/08/24 08:47:10;;;;;;;7.47;5.00;;;;;;;;;;5046033;28;20515;-79
2023/08/24 08:49:37;;;;;;;7.30;4.97;;;;;;;;;;5040790;28;20462;-80
2023/08/24 08:52:06;;;;;;;11.90;4.87;;;;;;;;;;5048787;28;20483;-79
2023/08/24 08:54:32;;;;;;;8.13;5.00;;;;;;;;;;5045619;28;20446;-80
2023/08/24 08:56:59;;;;;;;7.23;4.30;;;;;;;;;;5044215;28;20479;-79
2023/08/24 08:59:29;;;;;;;9.83;5.50;;;;;;;;;;5042644;28;20455;-79
2023/08/24 09:01:56;;;;;;;9.07;4.70;;;;;;;;;;5043538;28;20484;-79
2023/08/24 09:04:22;;;;;;;6.83;4.83;;;;;;;;;;5044623;28;20460;-79
2023/08/24 09:06:48;;;;;;;12.73;4.83;;;;;;;;;;5043525;28;20499;-79
2023/08/24 09:09:16;;;;;;;7.13;3.93;;;;;;;;;;5043635;28;20459;-79
2023/08/24 09:11:47;;;;;;;7.67;3.40;;;;;;;;;;5047649;28;20468;-79
2023/08/24 09:14:13;;;;;;;5.00;3.13;;;;;;;;;;5047648;28;20455;-79
2023/08/24 09:16:40;;;;;;;7.80;4.27;;;;;;;;;;5046505;28;20476;-79
2023/08/24 09:19:07;;;;;;;5.37;3.83;;;;;;;;;;5044330;28;20851;-79
2023/08/24 09:21:37;;;;;;;6.50;4.37;;;;;;;;;;5046815;28;20522;-79
2023/08/24 09:24:03;;;;;;;8.37;4.80;;;;;;;;;;5042751;28;20452;-79
2023/08/24 09:26:31;;;;;;;9.23;3.97;;;;;;;;;;5044526;28;20550;-79
2023/08/24 09:28:58;;;;;;;4.70;3.77;;;;;;;;;;5046916;28;20463;-79
2023/08/24 09:31:25;;;;;;;8.80;3.63;;;;;;;;;;5045130;28;20476;-79
2023/08/24 09:34:00;;;;;;;7.83;3.60;;;;;;;;;;5047289;28;20513;-79
2023/08/24 09:36:27;;;;;;;6.70;3.57;;;;;;;;;;5041269;28;20475;-79
2023/08/24 09:38:53;;;;;;;4.53;3.33;;;;;;;;;;5044482;28;20460;-79
2023/08/24 09:41:19;;;;;;;8.00;3.67;;;;;;;;;;5038643;28;20473;-79
2023/08/24 09:43:47;;;;;;;6.80;4.30;;;;;;;;;;5047531;28;21006;-80
2023/08/24 09:46:20;;;;;;;11.20;6.60;;;;;;;;;;5045348;28;20468;-79
2023/08/24 09:48:46;;;;;;;7.80;5.20;;;;;;;;;;5045353;28;20883;-79
2023/08/24 09:51:14;;;;;;;16.33;6.30;;;;;;;;;;5040055;28;20480;-79
2023/08/24 09:53:41;;;;;;;14.03;6.73;;;;;;;;;;5046668;28;20529;-79
2023/08/24 09:56:09;;;;;;;14.13;6.70;;;;;;;;;;5044841;28;20478;-79
2023/08/24 09:58:36;;;;;;;8.80;5.73;;;;;;;;;;5046247;28;20459;-79
2023/08/24 10:01:06;;;;;;;11.10;6.30;;;;;;;;;;5047651;28;20475;-79
2023/08/24 10:03:33;;;;;;;14.30;7.13;;;;;;;;;;5047506;28;20511;-79
2023/08/24 10:06:00;;;;;;;12.00;7.20;;;;;;;;;;5049563;28;20464;-79
2023/08/24 10:08:27;;;;;;;15.27;6.80;;;;;;;;;;5048169;28;20485;-79
2023/08/24 10:10:58;;;;;;;12.10;6.73;;;;;;;;;;5046201;28;20562;-79
2023/08/24 10:13:27;;;;;;;10.83;8.00;;;;;;;;;;5049658;28;20506;-79
2023/08/24 10:15:56;;;;;;;8.73;5.80;;;;;;;;;;5047010;28;20480;-79
2023/08/24 10:18:24;;;;;;;9.50;5.07;;;;;;;;;;5049965;28;21431;-78
2023/08/24 10:20:51;;;;;;;13.30;5.23;;;;;;;;;;5052388;28;20473;-79
2023/08/24 10:23:17;;;;;;;11.23;5.80;;;;;;;;;;5052454;28;20487;-79
2023/08/24 10:25:44;;;;;;;13.60;7.10;;;;;;;;;;5046728;28;20472;-79
2023/08/24 10:28:11;;;;;;;11.33;6.40;;;;;;;;;;5050113;28;20519;-79
2023/08/24 10:30:39;;;;;;;8.93;5.70;;;;;;;;;;5047523;28;20480;-79
2023/08/24 10:33:06;;;;;;;7.93;5.10;;;;;;;;;;5045455;28;20835;-79
2023/08/24 10:35:34;;;;;;;8.40;5.47;;;;;;;;;;5049733;28;20562;-80
2023/08/24 10:38:01;;;;;;;13.20;6.17;;;;;;;;;;5047288;28;20462;-79
2023/08/24 10:40:34;;;;;;;13.93;5.77;;;;;;;;;;5045467;28;20467;-79
2023/08/24 10:43:04;;;;;;;13.67;6.17;;;;;;;;;;5049023;28;20478;-79
2023/08/24 10:45:55;;;;;;;17.40;6.80;;;;;;;;;;5043813;28;20904;-79
2023/08/24 10:48:22;;;;;;;11.40;5.30;;;;;;;;;;5043995;28;21036;-79
2023/08/24 10:51:03;;;;;;;10.40;6.10;;;;;;;;;;5043641;28;20471;-79
2023/08/24 10:53:40;;;;;;;7.93;5.50;;;;;;;;;;5047473;28;20483;-79
2023/08/24 10:56:13;;;;;;;9.57;5.53;;;;;;;;;;5046357;28;20479;-79
2023/08/24 10:58:40;;;;;;;13.03;7.07;;;;;;;;;;5046035;28;20453;-79
2023/08/24 11:01:06;;;;;;;12.50;6.40;;;;;;;;;;5048275;28;20487;-79
2023/08/24 11:03:35;;;;;;;9.87;5.33;;;;;;;;;;5048072;28;22199;-79
2023/08/24 11:06:02;;;;;;;9.80;6.40;;;;;;;;;;5044770;28;20503;-79
2023/08/24 11:08:43;;;;;;;13.50;6.80;;;;;;;;;;5049690;28;20743;-79
2023/08/24 11:11:21;;;;;;;10.43;6.07;;;;;;;;;;5045004;28;20475;-79
2023/08/24 11:14:12;;;;;;;10.17;6.07;;;;;;;;;;5047182;28;21068;-80
2023/08/24 11:16:44;;;;;;;8.47;5.60;;;;;;;;;;5046944;28;20467;-79
2023/08/24 11:19:11;;;;;;;11.17;6.67;;;;;;;;;;5044090;28;20453;-79
2023/08/24 11:21:38;;;;;;;8.13;5.77;;;;;;;;;;5046624;28;20490;-80
2023/08/24 11:24:05;;;;;;;9.13;6.27;;;;;;;;;;5044863;28;20554;-79
2023/08/24 11:26:33;;;;;;;9.83;5.63;;;;;;;;;;5047187;28;20483;-79
2023/08/24 11:28:59;;;;;;;9.23;5.77;;;;;;;;;;5045376;28;20521;-79
2023/08/24 11:31:26;;;;;;;10.63;6.77;;;;;;;;;;5046076;28;20475;-79
2023/08/24 11:33:55;;;;;;;8.53;6.27;;;;;;;;;;5047286;28;20950;-79
2023/08/24 11:36:23;;;;;;;12.47;6.10;;;;;;;;;;5049020;28;21055;-79
2023/08/24 11:38:49;;;;;;;9.17;5.47;;;;;;;;;;5047293;28;20546;-79
2023/08/24 11:41:17;;;;;;;8.63;6.13;;;;;;;;;;5041151;28;20560;-79
2023/08/24 11:43:45;;;;;;;8.83;5.80;;;;;;;;;;5043699;28;20566;-79
2023/08/24 11:46:13;;;;;;;7.13;5.47;;;;;;;;;;5044254;28;20473;-79
2023/08/24 11:48:40;;;;;;;7.40;6.07;;;;;;;;;;5048222;28;20484;-78
2023/08/24 11:51:10;;;;;;;8.90;7.10;;;;;;;;;;5047698;28;20521;-79
2023/08/24 11:53:37;;;;;;;8.33;5.97;;;;;;;;;;5050196;28;20468;-79
2023/08/24 11:56:05;;;;;;;11.23;5.53;;;;;;;;;;5048213;28;20482;-79
2023/08/24 11:58:31;;;;;;;9.00;5.17;;;;;;;;;;5044423;28;20456;-79
2023/08/24 12:00:59;;;;;;;6.37;4.50;;;;;;;;;;5046402;28;20483;-79
2023/08/24 12:03:26;;;;;;;9.53;5.57;;;;;;;;;;5048618;28;20519;-79
2023/08/24 12:05:52;;;;;;;8.43;5.73;;;;;;;;;;5045450;28;20558;-79
2023/08/24 12:08:21;;;;;;;11.37;6.67;;;;;;;;;;5046382;28;20488;-79
2023/08/24 12:10:49;;;;;;;8.63;5.80;;;;;;;;;;5045313;28;20476;-79
2023/08/24 12:13:15;;;;;;;7.23;4.83;;;;;;;;;;5028559;28;21002;-79
2023/08/24 12:15:42;;;;;;;10.93;5.93;;;;;;;;;;5042123;28;20853;-79
2023/08/24 12:18:10;;;;;;;9.93;5.73;;;;;;;;;;5047235;28;20950;-79
2023/08/24 12:20:37;;;;;;;12.07;6.50;;;;;;;;;;5044436;28;20472;-79
2023/08/24 12:23:04;;;;;;;10.03;5.67;;;;;;;;;;5043443;28;20471;-79
2023/08/24 12:25:30;;;;;;;8.10;6.00;;;;;;;;;;5045713;28;20475;-79
2023/08/24 12:28:10;;;;;;;8.60;5.63;;;;;;;;;;5045801;28;20491;-79
2023/08/24 12:30:44;;;;;;;12.23;5.87;;;;;;;;;;5037134;28;20476;-79
2023/08/24 12:33:21;;;;;;;9.83;5.90;;;;;;;;;;5043035;28;20479;-79
2023/08/24 12:35:48;;;;;;;9.33;6.93;;;;;;;;;;5045438;28;21010;-79
2023/08/24 12:38:29;;;;;;;9.60;5.20;;;;;;;;;;5097827;27;20570;-78
2023/08/24 12:40:56;;;;;;;9.33;5.80;;;;;;;;;;5086662;28;20469;-78
2023/08/24 12:43:22;;;;;;;13.27;5.70;;;;;;;;;;5082576;28;20536;-78
2023/08/24 12:45:50;;;;;;;7.80;5.20;;;;;;;;;;5082688;28;20544;-78
2023/08/24 12:48:16;;;;;;;8.60;5.23;;;;;;;;;;5082174;28;20454;-78
2023/08/24 12:50:42;;;;;;;11.60;6.87;;;;;;;;;;5083461;28;20489;-78
2023/08/24 12:53:09;;;;;;;8.80;4.80;;;;;;;;;;5081370;28;20478;-78
2023/08/24 12:55:40;;;;;;;6.60;5.50;;;;;;;;;;5083103;28;20571;-78
2023/08/24 12:58:07;;;;;;;10.47;5.40;;;;;;;;;;5082975;28;20478;-78
2023/08/24 13:00:33;;;;;;;8.00;5.27;;;;;;;;;;5071362;28;20480;-78
2023/08/24 13:02:59;;;;;;;7.20;5.37;;;;;;;;;;5062573;28;20501;-79
2023/08/24 13:05:26;;;;;;;11.43;5.43;;;;;;;;;;5059129;28;20463;-78
2023/08/24 13:07:52;;;;;;;7.10;5.00;;;;;;;;;;5059179;28;20837;-78
2023/08/24 13:10:20;;;;;;;9.00;5.13;;;;;;;;;;5055242;28;20870;-79
2023/08/24 13:12:48;;;;;;;5.57;4.43;;;;;;;;;;5056600;28;20486;-78
2023/08/24 13:15:15;;;;;;;7.47;5.03;;;;;;;;;;5058804;28;20703;-78
2023/08/24 13:17:41;;;;;;;11.30;5.07;;;;;;;;;;5062970;28;20484;-80
2023/08/24 13:20:08;;;;;;;9.53;5.17;;;;;;;;;;5061025;28;20835;-79
2023/08/24 13:22:37;;;;;;;5.93;4.33;;;;;;;;;;5060676;28;20472;-79
2023/08/24 13:25:05;;;;;;;9.03;5.70;;;;;;;;;;5061827;28;20466;-79
2023/08/24 13:27:32;;;;;;;7.47;5.07;;;;;;;;;;5064728;28;20454;-79
2023/08/24 13:30:02;;;;;;;5.77;5.03;;;;;;;;;;5062790;28;20459;-79
2023/08/24 13:32:31;;;;;;;7.00;4.80;;;;;;;;;;5061228;28;20507;-79
2023/08/24 13:34:57;;;;;;;7.80;3.80;;;;;;;;;;5061425;28;20467;-79
2023/08/24 13:37:24;;;;;;;5.80;4.50;;;;;;;;;;5064039;28;20494;-79
2023/08/24 13:39:50;;;;;;;5.70;4.70;;;;;;;;;;5065786;28;20439;-79
2023/08/24 13:42:16;;;;;;;7.83;4.47;;;;;;;;;;5063281;28;20487;-79
2023/08/24 13:44:43;;;;;;;6.57;4.97;;;;;;;;;;5063374;28;20465;-79
2023/08/24 13:47:10;;;;;;;10.63;4.40;;;;;;;;;;5057252;28;20448;-79
2023/08/24 13:49:37;;;;;;;9.70;4.40;;;;;;;;;;5045352;28;20467;-80
2023/08/24 13:52:04;;;;;;;9.00;4.70;;;;;;;;;;5045900;28;20467;-79
2023/08/24 13:54:30;;;;;;;6.57;4.33;;;;;;;;;;5046278;28;20459;-79
2023/08/24 13:56:58;;;;;;;8.20;4.63;;;;;;;;;;5050113;28;20481;-79
2023/08/24 13:59:25;;;;;;;7.73;3.83;;;;;;;;;;5050073;28;20460;-79
2023/08/24 14:01:51;;;;;;;4.53;3.53;;;;;;;;;;5043339;28;20490;-79
2023/08/24 14:04:19;;;;;;;15.63;4.63;;;;;;;;;;5042048;28;20470;-79
2023/08/24 14:06:48;;;;;;;6.00;3.63;;;;;;;;;;5049478;28;20563;-79
2023/08/24 14:09:14;;;;;;;6.53;4.10;;;;;;;;;;5047242;28;20447;-80
2023/08/24 14:11:41;;;;;;;4.63;3.60;;;;;;;;;;5044853;28;20477;-79
2023/08/24 14:14:07;;;;;;;7.60;4.13;;;;;;;;;;5045912;28;20955;-79
2023/08/24 14:16:34;;;;;;;5.03;3.53;;;;;;;;;;5047286;28;20495;-79
2023/08/24 14:19:00;;;;;;;6.40;4.53;;;;;;;;;;5044899;28;20460;-79
2023/08/24 14:21:28;;;;;;;9.33;4.03;;;;;;;;;;5042847;28;20483;-79
2023/08/24 14:23:54;;;;;;;5.70;4.10;;;;;;;;;;5044794;28;20470;-79
2023/08/24 14:26:20;;;;;;;5.03;3.60;;;;;;;;;;5045093;28;20472;-79
2023/08/24 14:28:50;;;;;;;9.80;5.07;;;;;;;;;;5050165;28;20440;-79
2023/08/24 14:31:17;;;;;;;10.13;4.83;;;;;;;;;;5047187;28;20474;-79
2023/08/24 14:33:43;;;;;;;5.00;4.50;;;;;;;;;;5046312;28;20460;-79
2023/08/24 14:36:11;;;;;;;5.10;3.90;;;;;;;;;;5044981;28;20471;-79
2023/08/24 14:38:40;;;;;;;7.43;4.23;;;;;;;;;;5041523;28;20468;-79
2023/08/24 14:41:07;;;;;;;6.23;4.10;;;;;;;;;;5044878;28;20495;-79